Main page
METAR-TAF:

METAR-TAF

Airports :

Leonardo da Vinci–Fiumicino Airport

Rome-Fiumicino, Italy

latitude: 41-48N, longitude: 012-14E, elevation: 2 m

Current weather observation

The report was made 17 minutes ago, at 16:50 UTC
Wind 3 kt from the Northwest
Temperature 21°C
Humidity 78%
Pressure 1012 hPa
Visibility 10 km or more
no clouds below 1500 m and no cumulonimbus

METAR: LIRF 181650Z 32003KT CAVOK 21/17 Q1012 NOSIG

Time: 19:07 (17:07 UTC)

Forecast

The report was made 6 hours and 7 minutes ago, at 11:00 UTC
Forecast valid from 18 at 12 UTC to 19 at 18 UTC
Wind 5 kt from variable directions
Visibility 10 km or more
no clouds below 1500 m and no cumulonimbus
Becoming
from 19 at 10 UTC to 19 at 12 UTC
Wind 10 kt from the West/Southwest
Becoming
from 19 at 16 UTC to 19 at 18 UTC
Wind 5 kt from variable directions

TAF: LIRF 181100Z 1812/1918 VRB05KT CAVOK BECMG 1910/1912 25010KT BECMG 1916/1918 VRB05KT

Weather observations and forecasts of more than 4000 airports (METAR and TAF reports).

The available stations are represented by yellow and red dots on the map.

Hover mouse over dot to see the name of the station.

Then click to see weather observations and forecasts.

To change the map : click on the green buttons with a black cross to zoom in, on the green button with a dash to zoom out, or on the green arrows for adjacent maps.


METAR-TAF: